Time;durP1;ratioP1;P1;durP2;ratioP2;P2;SDS_P1;SDS_P2;PMS_P1;PMS_P2;Temp;Humidity;BMP_temperature;BMP_pressure;BME280_temperature;BME280_humidity;BME280_pressure;Samples;Min_cycle;Max_cycle;Signal;HPM_P1;HPM_P2
2023/03/02 04:47:29;;;;;;;24.35;10.60;;;;;;;-0.16;100.00;100924.03;5398509;27;20100;-84
2023/03/02 04:50:33;;;;;;;20.75;11.00;;;;;;;0.14;100.00;100921.25;5341861;33;34036;-85
2023/03/02 04:53:36;;;;;;;20.77;10.00;;;;;;;0.14;100.00;100916.81;5343593;33;34922;-84
2023/03/02 04:56:39;;;;;;;22.10;10.63;;;;;;;0.13;100.00;100917.75;5340250;33;35287;-84
2023/03/02 04:59:41;;;;;;;21.27;10.52;;;;;;;0.04;100.00;100921.00;5325668;33;34133;-85
2023/03/02 05:02:44;;;;;;;21.75;11.32;;;;;;;-0.09;100.00;100918.28;5325117;33;34103;-87
2023/03/02 05:05:47;;;;;;;25.23;11.12;;;;;;;0.00;100.00;100919.50;5339336;33;33738;-88
2023/03/02 05:08:51;;;;;;;19.77;10.95;;;;;;;0.14;100.00;100918.59;5331639;33;35431;-88
2023/03/02 05:11:57;;;;;;;23.30;10.90;;;;;;;0.18;100.00;100914.84;5322979;33;34237;-89
2023/03/02 05:15:01;;;;;;;20.37;10.00;;;;;;;0.17;100.00;100924.53;5330253;33;34593;-85
2023/03/02 05:18:06;;;;;;;23.40;11.45;;;;;;;0.21;100.00;100920.78;5332949;33;34242;-85
2023/03/02 05:21:10;;;;;;;23.35;11.00;;;;;;;0.20;100.00;100924.34;5326727;33;33150;-85
2023/03/02 05:24:13;;;;;;;25.42;11.20;;;;;;;0.20;100.00;100918.22;5326618;33;33921;-85
2023/03/02 05:27:16;;;;;;;23.10;10.05;;;;;;;0.13;100.00;100916.91;5326121;33;34034;-84
2023/03/02 05:30:20;;;;;;;20.77;11.12;;;;;;;0.04;100.00;100917.50;5335016;33;33972;-84
2023/03/02 05:33:26;;;;;;;26.52;12.50;;;;;;;0.06;100.00;100926.16;5338650;33;35440;-85
2023/03/02 05:36:29;;;;;;;23.92;10.98;;;;;;;0.18;100.00;100926.25;5328955;33;34629;-87
2023/03/02 05:39:36;;;;;;;20.10;10.13;;;;;;;0.22;100.00;100930.41;5326847;33;34500;-87
2023/03/02 05:42:40;;;;;;;23.05;11.02;;;;;;;0.30;100.00;100924.63;5330565;33;33647;-86
2023/03/02 05:45:43;;;;;;;22.92;10.55;;;;;;;0.28;100.00;100931.81;5327002;33;33961;-86
2023/03/02 05:48:46;;;;;;;23.90;10.80;;;;;;;0.18;100.00;100939.50;5326061;33;34315;-86
2023/03/02 05:51:50;;;;;;;22.92;11.40;;;;;;;0.13;100.00;100938.09;5326322;33;34424;-86
2023/03/02 05:54:52;;;;;;;20.60;10.60;;;;;;;0.24;100.00;100940.06;5327793;33;34180;-86
2023/03/02 05:57:55;;;;;;;25.67;11.00;;;;;;;0.40;100.00;100941.63;5336228;33;34195;-85
2023/03/02 06:00:59;;;;;;;22.58;11.30;;;;;;;0.50;100.00;100938.37;5328253;33;35413;-86
2023/03/02 06:04:02;;;;;;;27.40;12.85;;;;;;;0.60;100.00;100948.28;5325952;33;34810;-83
2023/03/02 06:07:05;;;;;;;23.10;11.25;;;;;;;0.71;100.00;100949.41;5326942;33;33834;-84
2023/03/02 06:10:10;;;;;;;23.98;11.23;;;;;;;0.86;100.00;100951.87;5326416;33;34487;-84
2023/03/02 06:13:18;;;;;;;23.45;11.82;;;;;;;1.06;100.00;100953.19;5326658;33;35181;-84
2023/03/02 06:16:21;;;;;;;26.08;11.43;;;;;;;1.14;100.00;100957.97;5326284;33;33763;-84
2023/03/02 06:19:24;;;;;;;24.80;11.77;;;;;;;1.34;100.00;100956.63;5325497;33;33792;-84
2023/03/02 06:22:27;;;;;;;21.83;11.73;;;;;;;1.46;100.00;100961.09;5326120;33;34721;-84
2023/03/02 06:25:30;;;;;;;24.33;12.40;;;;;;;1.59;100.00;100958.47;5326221;33;33806;-84
2023/03/02 06:28:33;;;;;;;21.87;11.18;;;;;;;1.71;100.00;100959.44;5326175;33;34438;-84
2023/03/02 06:31:53;;;;;;;21.92;11.45;;;;;;;1.83;100.00;100963.88;5326029;33;33788;-84
2023/03/02 06:34:56;;;;;;;21.30;10.82;;;;;;;1.86;100.00;100966.31;5326646;33;33953;-84
2023/03/02 06:37:59;;;;;;;22.80;11.65;;;;;;;2.08;100.00;100964.78;5326811;33;33927;-84
2023/03/02 06:41:03;;;;;;;22.17;11.23;;;;;;;2.19;99.00;100967.53;5327619;33;34613;-83
2023/03/02 06:44:05;;;;;;;24.33;10.93;;;;;;;2.35;95.77;100970.81;5336689;33;33960;-84
2023/03/02 06:47:08;;;;;;;26.08;11.55;;;;;;;2.70;93.81;100970.06;5329777;33;34151;-83
2023/03/02 06:50:11;;;;;;;23.75;11.35;;;;;;;3.20;90.92;100977.91;5326087;33;34881;-83
2023/03/02 06:53:17;;;;;;;20.23;10.85;;;;;;;4.15;84.61;100968.72;5325492;33;34316;-84
2023/03/02 06:56:19;;;;;;;20.33;10.23;;;;;;;4.70;79.73;100982.94;5322986;33;34324;-87
2023/03/02 06:59:22;;;;;;;20.25;10.50;;;;;;;4.97;76.08;100970.97;5325595;33;34514;-89
2023/03/02 07:02:25;;;;;;;19.48;9.93;;;;;;;4.52;76.13;100977.28;5332011;33;33677;-88
2023/03/02 07:05:31;;;;;;;18.08;9.80;;;;;;;4.26;76.17;100982.03;5324792;33;34757;-88
2023/03/02 07:08:34;;;;;;;20.27;10.05;;;;;;;4.27;76.14;100978.41;5326195;33;33970;-85
2023/03/02 07:11:38;;;;;;;18.08;9.73;;;;;;;4.27;nan;100972.22;5321213;33;267296;-85
2023/03/02 07:14:41;;;;;;;18.08;10.75;;;;;;;4.31;75.04;100982.53;5339665;33;33672;-85
2023/03/02 07:17:45;;;;;;;17.20;9.63;;;;;;;4.45;74.12;100980.59;5343064;33;35307;-86
2023/03/02 07:20:49;;;;;;;16.60;9.38;;;;;;;4.46;73.66;100976.94;5339681;33;35454;-85
2023/03/02 07:23:52;;;;;;;20.83;9.57;;;;;;;4.61;71.36;100977.50;5325772;33;34187;-85
2023/03/02 07:26:55;;;;;;;19.87;9.68;;;;;;;4.50;72.41;100983.69;5325509;33;33532;-85
2023/03/02 07:29:58;;;;;;;19.70;10.00;;;;;;;4.64;70.34;100979.94;5325320;33;35427;-84
2023/03/02 07:33:00;;;;;;;17.62;10.05;;;;;;;4.80;70.63;100977.72;5325630;33;33971;-87
2023/03/02 07:36:05;;;;;;;18.77;9.25;;;;;;;5.07;68.27;100979.06;5339372;33;34535;-86
2023/03/02 07:39:08;;;;;;;18.12;9.88;;;;;;;4.97;67.46;100971.84;5334200;33;33921;-84
2023/03/02 07:42:11;;;;;;;22.02;9.85;;;;;;;5.00;66.74;100971.59;5333383;33;33919;-85
2023/03/02 07:45:15;;;;;;;16.12;9.30;;;;;;;5.29;66.40;100972.78;5335875;33;35446;-86
2023/03/02 07:48:18;;;;;;;20.52;9.25;;;;;;;5.43;66.28;100967.97;5327316;33;34891;-85
2023/03/02 07:51:21;;;;;;;18.92;9.45;;;;;;;5.75;64.00;100960.84;5324430;33;34294;-86
2023/03/02 07:54:26;;;;;;;19.95;9.60;;;;;;;5.93;63.79;100961.97;5323606;33;33838;-85
2023/03/02 07:57:29;;;;;;;19.35;10.50;;;;;;;6.09;62.50;100956.97;5335528;33;33892;-86
2023/03/02 08:00:32;;;;;;;14.82;8.48;;;;;;;6.27;62.73;100954.50;5342396;33;35367;-87
2023/03/02 08:03:38;;;;;;;14.15;7.35;;;;;;;6.56;61.14;100951.91;5326531;33;33827;-86
2023/03/02 08:06:40;;;;;;;16.15;8.80;;;;;;;6.77;55.34;100946.44;5325493;33;34153;-86
2023/03/02 08:09:44;;;;;;;13.35;7.90;;;;;;;6.96;55.29;100953.66;5324869;33;33846;-85
2023/03/02 08:12:48;;;;;;;14.80;7.78;;;;;;;6.91;56.58;100955.91;5325832;33;34058;-86
2023/03/02 08:15:58;;;;;;;12.90;7.87;;;;;;;7.23;56.01;100954.78;5326623;33;34874;-86
2023/03/02 08:19:01;;;;;;;13.90;7.22;;;;;;;7.39;49.99;100959.56;5326885;33;33598;-86
2023/03/02 08:22:04;;;;;;;12.55;7.10;;;;;;;7.46;48.04;100958.84;5328144;33;33749;-86
2023/03/02 08:25:07;;;;;;;16.90;7.57;;;;;;;7.62;49.32;100955.56;5328143;33;34098;-85
2023/03/02 08:28:10;;;;;;;14.40;7.72;;;;;;;7.72;49.26;100969.78;5326548;33;34134;-86
2023/03/02 08:31:13;;;;;;;14.30;7.50;;;;;;;7.82;46.81;100960.88;5326620;33;34191;-85
2023/03/02 08:34:18;;;;;;;14.65;8.23;;;;;;;7.70;46.94;100960.22;5318882;33;34583;-86
2023/03/02 08:37:20;;;;;;;16.85;7.72;;;;;;;7.92;46.89;100953.62;5333772;33;34972;-88
2023/03/02 08:40:23;;;;;;;14.52;8.27;;;;;;;7.88;47.05;100955.78;5326957;33;35024;-87
2023/03/02 08:43:26;;;;;;;15.00;8.05;;;;;;;7.92;47.42;100943.75;5309783;33;33729;-88
2023/03/02 08:46:30;;;;;;;17.02;8.45;;;;;;;8.05;47.52;100942.59;5317059;33;33497;-86
2023/03/02 08:49:32;;;;;;;12.18;7.55;;;;;;;8.13;46.85;100945.37;5326396;33;34690;-86
2023/03/02 08:52:35;;;;;;;11.82;7.72;;;;;;;8.22;47.54;100941.81;5326680;33;34707;-86
2023/03/02 08:55:38;;;;;;;11.82;7.62;;;;;;;8.60;47.00;100938.09;5326904;33;34113;-86
2023/03/02 08:58:41;;;;;;;14.77;8.05;;;;;;;8.77;45.83;100941.78;5327654;33;34166;-86
2023/03/02 09:01:45;;;;;;;13.73;7.60;;;;;;;8.75;45.96;100932.22;5315019;33;34610;-85
2023/03/02 09:04:48;;;;;;;14.73;7.82;;;;;;;8.82;46.55;100927.91;5326741;33;34664;-87
2023/03/02 09:07:52;;;;;;;16.85;8.07;;;;;;;8.96;47.11;100929.22;5325017;33;34880;-88
2023/03/02 09:10:55;;;;;;;12.45;7.40;;;;;;;9.25;45.41;100928.97;5322797;33;33895;-91
2023/03/02 09:13:57;;;;;;;12.65;7.68;;;;;;;8.93;44.59;100933.06;5326937;33;34139;-91
2023/03/02 09:17:00;;;;;;;18.25;7.32;;;;;;;9.02;44.46;100925.91;5327122;33;32557;-90
2023/03/02 09:20:04;;;;;;;12.65;6.90;;;;;;;9.05;44.64;100926.44;5326293;33;34731;-87
2023/03/02 09:23:07;;;;;;;11.43;6.82;;;;;;;9.18;44.87;100919.84;5326110;33;33889;-87
2023/03/02 09:26:10;;;;;;;12.75;7.55;;;;;;;9.00;45.66;100912.63;5326983;33;33946;-88
2023/03/02 09:29:12;;;;;;;12.23;7.60;;;;;;;9.29;43.70;100917.75;5341907;33;34653;-87
2023/03/02 09:32:15;;;;;;;14.85;7.78;;;;;;;9.42;44.45;100922.72;5329989;33;35206;-85
2023/03/02 09:35:18;;;;;;;10.85;7.20;;;;;;;9.27;44.15;100911.69;5320826;33;33980;-86
2023/03/02 09:38:21;;;;;;;12.37;7.47;;;;;;;9.30;42.29;100921.25;5308685;33;34107;-86
2023/03/02 09:41:37;;;;;;;12.73;6.78;;;;;;;9.09;43.07;100914.38;5313362;33;33986;-86
2023/03/02 09:44:52;;;;;;;11.38;6.85;;;;;;;9.32;43.28;100905.84;5326963;33;33666;-86
2023/03/02 09:48:15;;;;;;;16.33;7.25;;;;;;;9.46;42.70;100915.19;5331351;33;34573;-86
2023/03/02 09:51:44;;;;;;;11.30;6.03;;;;;;;9.49;42.39;100909.50;5331472;33;34243;-86
2023/03/02 09:54:47;;;;;;;10.15;6.07;;;;;;;9.76;43.82;100893.19;5323572;33;33593;-85
2023/03/02 09:57:50;;;;;;;12.00;6.12;;;;;;;9.56;44.28;100894.41;5326214;33;34011;-86
2023/03/02 10:00:53;;;;;;;11.80;6.50;;;;;;;9.92;44.01;100889.75;5325705;33;33334;-86
2023/03/02 10:04:05;;;;;;;10.45;6.37;;;;;;;10.11;42.47;100891.31;5326115;33;33939;-86
2023/03/02 10:07:31;;;;;;;10.30;5.85;;;;;;;10.14;42.00;100888.31;5327686;33;34130;-86
2023/03/02 10:11:25;;;;;;;10.65;5.97;;;;;;;10.23;42.14;100886.50;5335003;33;33010;-85
2023/03/02 10:15:03;;;;;;;9.13;5.15;;;;;;;10.50;41.78;100887.28;5326961;33;34479;-86
2023/03/02 10:18:09;;;;;;;9.95;5.30;;;;;;;10.62;40.90;100875.19;5327195;33;34243;-86
2023/03/02 10:21:44;;;;;;;10.55;5.62;;;;;;;10.75;42.08;100874.69;5326512;33;33971;-85
2023/03/02 10:25:20;;;;;;;9.45;5.05;;;;;;;10.74;41.97;100875.72;5318274;33;35550;-85
2023/03/02 10:28:30;;;;;;;12.52;5.70;;;;;;;10.87;41.09;100876.88;5331212;33;34326;-85
2023/03/02 10:31:33;;;;;;;8.68;4.53;;;;;;;11.18;39.93;100870.84;5327602;33;35572;-88
2023/03/02 10:34:37;;;;;;;10.35;4.85;;;;;;;11.02;41.44;100868.97;5325476;33;33594;-91
2023/03/02 10:37:40;;;;;;;9.07;5.00;;;;;;;11.12;40.06;100868.81;5326949;33;34342;-90
2023/03/02 10:40:55;;;;;;;6.00;4.40;;;;;;;11.03;40.01;100857.22;5325565;33;35474;-90
2023/03/02 10:44:27;;;;;;;8.90;4.82;;;;;;;10.99;39.68;100855.84;5324279;33;35017;-85
2023/03/02 10:47:30;;;;;;;8.20;5.05;;;;;;;11.17;40.36;100862.91;5322081;33;33584;-86
2023/03/02 10:50:35;;;;;;;6.82;4.68;;;;;;;11.47;40.37;100856.81;5317219;33;34821;-86
2023/03/02 10:53:37;;;;;;;7.68;4.75;;;;;;;11.64;42.87;100854.06;5325188;33;34090;-86
2023/03/02 10:56:42;;;;;;;6.47;5.00;;;;;;;11.77;42.01;100846.28;5325423;33;34064;-86
2023/03/02 10:59:46;;;;;;;7.18;4.78;;;;;;;11.91;41.64;100844.75;5319805;33;35226;-86
2023/03/02 11:02:50;;;;;;;10.43;5.25;;;;;;;12.31;41.95;100838.28;5324700;33;33951;-86
2023/03/02 11:05:54;;;;;;;10.13;5.30;;;;;;;12.44;42.05;100825.03;5325200;33;33774;-86
2023/03/02 11:09:05;;;;;;;11.95;6.28;;;;;;;12.28;42.34;100824.31;5332200;33;34294;-86
2023/03/02 11:12:14;;;;;;;7.35;5.50;;;;;;;12.21;42.89;100821.47;5341823;33;35342;-87
2023/03/02 11:15:32;;;;;;;9.45;6.18;;;;;;;12.21;41.64;100826.87;5340775;33;35618;-86
2023/03/02 11:18:51;;;;;;;8.45;5.60;;;;;;;12.35;41.98;100818.03;5326105;33;34206;-86
2023/03/02 11:22:05;;;;;;;12.18;6.30;;;;;;;12.62;43.61;100813.94;5326871;33;33959;-86
2023/03/02 11:25:20;;;;;;;7.90;5.43;;;;;;;12.77;41.36;100811.28;5325974;33;33960;-86
2023/03/02 11:28:52;;;;;;;10.10;5.87;;;;;;;13.30;42.64;100804.06;5325191;33;33355;-90
2023/03/02 11:32:00;;;;;;;9.63;6.12;;;;;;;13.65;41.02;100801.62;5288509;33;34296;-86
2023/03/02 11:35:27;;;;;;;10.07;5.95;;;;;;;13.76;42.74;100803.03;5325605;33;34028;-86
2023/03/02 11:38:45;;;;;;;8.75;5.87;;;;;;;13.73;43.63;100796.13;5308195;33;33776;-86
2023/03/02 11:41:49;;;;;;;8.90;5.82;;;;;;;14.15;41.76;100791.84;5325195;33;34319;-86
2023/03/02 11:44:52;;;;;;;10.32;6.20;;;;;;;14.03;42.16;100782.53;5338085;33;33767;-86
2023/03/02 11:48:05;;;;;;;9.55;5.95;;;;;;;14.04;44.18;100784.25;5324598;33;33393;-86
2023/03/02 11:51:37;;;;;;;9.65;6.12;;;;;;;14.82;42.47;100777.09;5321242;33;34029;-86
2023/03/02 11:55:04;;;;;;;8.52;6.00;;;;;;;15.38;40.93;100771.66;5319215;33;33654;-86
2023/03/02 11:58:20;;;;;;;11.60;6.05;;;;;;;16.42;38.77;100770.62;5317778;33;34615;-86
2023/03/02 12:01:26;;;;;;;8.18;5.68;;;;;;;16.97;37.18;100774.03;5325418;33;34118;-91
2023/03/02 12:04:35;;;;;;;9.18;5.57;;;;;;;17.23;36.42;100777.78;5324692;33;33698;-87
2023/03/02 12:07:38;;;;;;;7.90;5.43;;;;;;;18.11;36.72;100758.22;5321910;33;34027;-87
2023/03/02 12:11:00;;;;;;;7.70;4.87;;;;;;;18.80;35.34;100764.69;5322641;33;34029;-86
2023/03/02 12:14:28;;;;;;;6.95;4.53;;;;;;;20.04;32.29;100761.94;5326003;33;35725;-86
2023/03/02 12:17:33;;;;;;;7.10;4.93;;;;;;;21.00;30.84;100755.41;5336453;33;34870;-86
2023/03/02 12:20:40;;;;;;;8.40;4.87;;;;;;;21.95;29.71;100748.72;5337183;33;34516;-86
2023/03/02 12:23:43;;;;;;;6.40;4.78;;;;;;;22.55;29.05;100743.78;5327994;33;33834;-86
2023/03/02 12:26:45;;;;;;;6.68;4.57;;;;;;;22.59;28.37;100747.72;5325663;33;34053;-86
2023/03/02 12:30:08;;;;;;;10.40;4.78;;;;;;;24.24;26.73;100738.72;5325500;33;33811;-87
2023/03/02 12:33:20;;;;;;;6.95;4.25;;;;;;;24.35;25.31;100737.72;5327890;33;33433;-87
2023/03/02 12:36:42;;;;;;;6.25;4.03;;;;;;;23.65;27.12;100735.84;5331559;33;34309;-87
2023/03/02 12:39:59;;;;;;;6.32;4.25;;;;;;;25.29;24.87;100744.56;5323682;33;34542;-87
2023/03/02 12:43:28;;;;;;;4.72;4.12;;;;;;;24.64;25.53;100741.06;5314327;33;35047;-90
2023/03/02 12:46:36;;;;;;;5.87;4.10;;;;;;;25.47;24.09;100729.50;5325594;33;34289;-86
2023/03/02 12:50:26;;;;;;;13.70;4.50;;;;;;;24.12;25.96;100725.13;5325180;33;34614;-86
2023/03/02 12:53:29;;;;;;;5.10;3.55;;;;;;;24.85;24.44;100732.94;5259703;33;34057;-86
2023/03/02 12:56:32;;;;;;;4.53;3.70;;;;;;;25.82;23.43;100719.72;5335398;33;34171;-86
2023/03/02 12:59:37;;;;;;;14.85;4.37;;;;;;;26.18;23.12;100708.81;5340295;33;35366;-86
2023/03/02 13:02:46;;;;;;;7.62;4.47;;;;;;;26.52;23.45;100708.28;5325149;33;33565;-86
2023/03/02 13:05:49;;;;;;;9.63;4.00;;;;;;;27.16;22.08;100704.09;5319353;33;33559;-86
2023/03/02 13:08:56;;;;;;;5.85;3.90;;;;;;;25.04;23.68;100706.66;5325526;33;33542;-86
2023/03/02 13:11:59;;;;;;;5.62;4.15;;;;;;;22.61;26.25;100704.38;5322643;33;34181;-86
2023/03/02 13:15:14;;;;;;;9.27;4.37;;;;;;;21.02;28.46;100705.88;5326426;33;32796;-86
2023/03/02 13:18:19;;;;;;;8.15;4.55;;;;;;;18.44;31.61;100700.75;5323422;33;35566;-86
2023/03/02 13:21:33;;;;;;;7.45;4.87;;;;;;;17.84;34.21;100694.87;5326974;33;34239;-86
2023/03/02 13:24:44;;;;;;;8.23;4.68;;;;;;;17.08;34.45;100695.53;5325747;33;34225;-85
2023/03/02 13:27:55;;;;;;;8.65;4.93;;;;;;;16.29;37.24;100697.25;5326671;33;35288;-85
2023/03/02 13:31:04;;;;;;;8.45;4.90;;;;;;;15.60;38.38;100696.44;5326566;33;35251;-90
2023/03/02 13:34:29;;;;;;;6.20;4.80;;;;;;;15.35;38.00;100692.56;5325738;33;34154;-86
2023/03/02 13:37:42;;;;;;;8.40;5.03;;;;;;;15.24;38.21;100683.12;5318212;33;33853;-86
2023/03/02 13:40:52;;;;;;;8.27;5.12;;;;;;;15.08;39.10;100676.16;5321589;33;33834;-86
2023/03/02 13:43:55;;;;;;;8.33;5.50;;;;;;;15.06;39.78;100674.66;5326362;33;34132;-86
2023/03/02 13:46:59;;;;;;;7.50;5.37;;;;;;;14.72;40.46;100671.75;5320724;33;34008;-86
2023/03/02 13:50:07;;;;;;;9.00;5.28;;;;;;;14.33;41.25;100669.53;5329608;33;34238;-86
2023/03/02 13:53:14;;;;;;;8.63;5.40;;;;;;;14.24;42.65;100665.28;5314062;33;33856;-86
2023/03/02 13:56:18;;;;;;;10.57;5.68;;;;;;;13.65;43.63;100660.13;5332929;33;34294;-86
2023/03/02 13:59:22;;;;;;;9.88;5.25;;;;;;;13.15;45.44;100665.31;5323370;33;34209;-86
2023/03/02 14:02:27;;;;;;;10.60;5.87;;;;;;;13.03;45.12;100654.13;5325900;33;33668;-85
2023/03/02 14:05:32;;;;;;;11.10;5.40;;;;;;;12.74;46.80;100651.41;5326691;33;34757;-85
2023/03/02 14:08:35;;;;;;;10.95;5.70;;;;;;;12.61;46.91;100650.22;5317831;33;33667;-86
2023/03/02 14:11:44;;;;;;;7.60;4.93;;;;;;;12.58;47.61;100647.03;5327993;33;35353;-86
2023/03/02 14:14:47;;;;;;;8.45;5.28;;;;;;;12.33;47.46;100638.31;5329117;33;34315;-86
2023/03/02 14:17:50;;;;;;;7.43;5.22;;;;;;;12.20;48.92;100631.69;5326505;33;34334;-86
2023/03/02 14:20:55;;;;;;;10.23;4.95;;;;;;;12.25;48.27;100626.59;5322574;33;33906;-86
2023/03/02 14:23:58;;;;;;;7.25;4.80;;;;;;;12.25;48.33;100631.13;5315370;33;33996;-85
2023/03/02 14:27:01;;;;;;;7.37;4.68;;;;;;;12.10;48.07;100625.69;5319332;33;33813;-84
2023/03/02 14:30:15;;;;;;;8.32;4.80;;;;;;;12.03;49.18;100630.97;5322366;33;32919;-85
2023/03/02 14:33:21;;;;;;;7.82;4.90;;;;;;;11.93;49.04;100621.44;5325049;33;34021;-85
2023/03/02 14:36:33;;;;;;;7.72;4.20;;;;;;;11.81;48.91;100627.22;5325976;33;34165;-85
2023/03/02 14:39:41;;;;;;;8.93;4.47;;;;;;;11.72;48.78;100627.47;5320358;33;33849;-85
2023/03/02 14:42:44;;;;;;;9.30;4.18;;;;;;;11.69;50.03;100619.75;5320876;33;34107;-89
2023/03/02 14:45:47;;;;;;;9.93;4.37;;;;;;;11.70;50.14;100624.97;5317864;33;33551;-88
2023/03/02 14:48:50;;;;;;;8.18;4.20;;;;;;;11.68;50.04;100620.78;5328634;33;33686;-86
2023/03/02 14:52:25;;;;;;;7.78;4.12;;;;;;;11.42;49.71;100616.53;5337546;33;33761;-89
2023/03/02 14:55:30;;;;;;;8.27;4.05;;;;;;;11.49;50.35;100619.34;5322633;33;34489;-86
2023/03/02 14:58:33;;;;;;;5.12;3.78;;;;;;;11.51;49.81;100615.47;5322203;33;33530;-85
2023/03/02 15:01:38;;;;;;;8.90;4.18;;;;;;;11.40;49.86;100615.03;5323112;33;34888;-85
2023/03/02 15:04:41;;;;;;;6.72;4.07;;;;;;;11.33;50.38;100618.44;5330999;33;33875;-84
2023/03/02 15:07:44;;;;;;;6.62;4.28;;;;;;;11.23;50.71;100611.59;5324263;33;34239;-85
2023/03/02 15:10:49;;;;;;;8.95;4.20;;;;;;;11.18;51.58;100611.28;5325503;33;34539;-86
2023/03/02 15:13:53;;;;;;;4.72;3.58;;;;;;;11.16;51.60;100611.47;5336597;33;34519;-84
2023/03/02 15:16:56;;;;;;;7.72;4.25;;;;;;;11.24;50.64;100610.59;5334034;33;34387;-86
2023/03/02 15:19:59;;;;;;;7.60;4.35;;;;;;;11.02;51.17;100614.88;5330087;33;33805;-87
2023/03/02 15:23:05;;;;;;;9.68;4.85;;;;;;;11.03;51.31;100612.03;5332525;33;34316;-85
2023/03/02 15:26:11;;;;;;;8.52;4.20;;;;;;;10.90;52.28;100609.03;5335367;33;33868;-87
2023/03/02 15:29:18;;;;;;;8.93;4.27;;;;;;;10.89;52.12;100608.22;5338456;33;36252;-85
2023/03/02 15:32:23;;;;;;;7.95;4.18;;;;;;;10.83;52.14;100618.84;5342097;33;33950;-86
2023/03/02 15:35:28;;;;;;;6.55;4.47;;;;;;;10.80;52.26;100616.50;5338857;33;35525;-85
2023/03/02 15:38:34;;;;;;;6.90;4.50;;;;;;;10.87;52.39;100614.78;5322124;33;34332;-86
2023/03/02 15:41:37;;;;;;;11.02;4.68;;;;;;;10.80;52.38;100622.72;5332915;33;33935;-85
2023/03/02 15:44:40;;;;;;;6.60;4.45;;;;;;;10.73;52.51;100620.88;5337496;33;33882;-85
2023/03/02 15:47:43;;;;;;;6.75;4.35;;;;;;;10.61;52.60;100615.03;5330721;33;34436;-85
2023/03/02 15:51:03;;;;;;;7.10;4.45;;;;;;;10.54;53.05;100620.25;5337244;33;34486;-85
2023/03/02 15:54:05;;;;;;;6.87;4.28;;;;;;;10.54;54.21;100622.97;5331132;33;34907;-85
2023/03/02 15:57:09;;;;;;;13.98;4.32;;;;;;;10.43;53.52;100612.53;5323406;33;34887;-85
2023/03/02 16:00:12;;;;;;;7.12;4.07;;;;;;;10.28;54.06;100617.78;5329061;33;34353;-86
2023/03/02 16:03:16;;;;;;;7.85;4.15;;;;;;;10.18;54.06;100619.78;5327558;33;34176;-85
2023/03/02 16:06:18;;;;;;;7.60;4.20;;;;;;;10.11;54.16;100624.97;5327751;33;35012;-85
2023/03/02 16:09:27;;;;;;;7.70;4.28;;;;;;;10.02;54.62;100623.31;5329875;33;34477;-89
2023/03/02 16:12:31;;;;;;;6.28;3.67;;;;;;;9.92;55.31;100625.34;5329519;33;32831;-89
2023/03/02 16:15:41;;;;;;;6.30;4.22;;;;;;;9.85;55.71;100627.00;5333116;33;34149;-86
2023/03/02 16:18:55;;;;;;;8.63;4.30;;;;;;;9.75;56.23;100630.69;5335204;33;35320;-85
2023/03/02 16:21:58;;;;;;;6.55;4.45;;;;;;;9.67;56.55;100629.84;5328265;33;34737;-86
2023/03/02 16:25:01;;;;;;;8.30;4.35;;;;;;;9.54;56.56;100631.16;5328642;33;34240;-85
2023/03/02 16:28:05;;;;;;;7.20;4.30;;;;;;;9.47;56.90;100631.97;5328972;33;34752;-85
2023/03/02 16:31:16;;;;;;;9.15;4.80;;;;;;;9.38;57.29;100632.97;5328684;33;34213;-85
2023/03/02 16:34:19;;;;;;;7.40;4.03;;;;;;;9.26;57.78;100635.94;5330049;33;34213;-85
2023/03/02 16:37:22;;;;;;;8.80;4.87;;;;;;;9.18;58.50;100641.28;5329214;33;33897;-85
2023/03/02 16:40:27;;;;;;;10.45;4.80;;;;;;;9.07;59.08;100639.75;5329541;33;34009;-85
2023/03/02 16:43:30;;;;;;;9.73;5.18;;;;;;;8.98;59.53;100637.19;5328863;33;33816;-85
2023/03/02 16:46:36;;;;;;;9.68;4.65;;;;;;;8.82;60.12;100649.53;5327736;33;33869;-85
2023/03/02 16:49:38;;;;;;;8.55;5.07;;;;;;;8.75;60.69;100640.44;5329186;33;33948;-85
2023/03/02 16:52:42;;;;;;;7.55;4.90;;;;;;;8.65;61.91;100645.06;5328856;33;34641;-85
2023/03/02 16:55:44;;;;;;;10.70;4.95;;;;;;;8.58;62.37;100652.09;5332915;33;34563;-85
2023/03/02 16:58:47;;;;;;;9.23;4.78;;;;;;;8.50;62.85;100652.88;5331207;33;33934;-85
2023/03/02 17:01:50;;;;;;;10.05;5.35;;;;;;;8.43;63.02;100659.88;5333893;33;34340;-85
